createdAt,value
2023-05-07T00:00:47.099Z,69.77
2023-05-07T00:03:15.030Z,55.40
2023-05-07T00:05:42.555Z,63.80
2023-05-07T00:08:09.071Z,55.40
2023-05-07T00:10:35.541Z,38.83
2023-05-07T00:13:02.183Z,43.70
2023-05-07T00:15:28.699Z,36.53
2023-05-07T00:17:55.213Z,31.00
2023-05-07T00:20:21.660Z,34.10
2023-05-07T00:22:48.130Z,30.20
2023-05-07T00:25:14.554Z,26.57
2023-05-07T00:27:41.045Z,29.37
2023-05-07T00:30:09.117Z,25.57
2023-05-07T00:32:35.940Z,23.47
2023-05-07T00:35:02.419Z,24.77
2023-05-07T00:37:28.866Z,24.43
2023-05-07T00:39:57.045Z,24.90
2023-05-07T00:42:23.599Z,22.97
2023-05-07T00:44:50.062Z,22.80
2023-05-07T00:47:16.776Z,23.50
2023-05-07T00:49:44.564Z,24.23
2023-05-07T00:52:14.244Z,27.23
2023-05-07T00:54:42.283Z,24.77
2023-05-07T00:57:10.602Z,24.83
2023-05-07T00:59:37.136Z,24.47
2023-05-07T01:02:03.788Z,26.87
2023-05-07T01:04:31.424Z,28.90
2023-05-07T01:07:00.238Z,28.67
2023-05-07T01:09:27.709Z,27.90
2023-05-07T01:11:54.555Z,29.07
2023-05-07T01:14:21.889Z,33.30
2023-05-07T01:16:50.114Z,32.20
2023-05-07T01:19:19.249Z,35.07
2023-05-07T01:21:49.844Z,31.87
2023-05-07T01:24:16.926Z,43.23
2023-05-07T01:26:46.728Z,35.27
2023-05-07T01:29:13.884Z,45.23
2023-05-07T01:31:41.905Z,36.10
2023-05-07T01:34:09.925Z,46.17
2023-05-07T01:36:39.247Z,55.80
2023-05-07T01:39:07.964Z,47.97
2023-05-07T01:41:34.910Z,57.80
2023-05-07T01:44:01.554Z,74.90
2023-05-07T01:46:28.945Z,76.50
2023-05-07T01:48:55.516Z,62.27
2023-05-07T01:51:23.427Z,67.60
2023-05-07T01:53:52.171Z,114.50
2023-05-07T01:56:22.523Z,94.90
2023-05-07T01:58:49.188Z,118.97
2023-05-07T02:01:15.797Z,123.60
2023-05-07T02:03:42.571Z,115.40
2023-05-07T02:06:09.565Z,103.20
2023-05-07T02:08:36.445Z,110.63
2023-05-07T02:11:03.187Z,101.70
2023-05-07T02:13:31.063Z,100.40
2023-05-07T02:15:57.971Z,96.90
2023-05-07T02:18:24.504Z,87.87
2023-05-07T02:20:51.769Z,96.23
2023-05-07T02:23:18.358Z,89.17
2023-05-07T02:25:44.886Z,95.37
2023-05-07T02:28:11.368Z,100.77
2023-05-07T02:30:38.954Z,103.10
2023-05-07T02:33:05.704Z,114.13
2023-05-07T02:35:32.191Z,121.80
2023-05-07T02:37:58.610Z,128.93
2023-05-07T02:40:25.464Z,146.57
2023-05-07T02:42:51.933Z,124.03
2023-05-07T02:45:19.294Z,151.20
2023-05-07T02:47:45.811Z,126.13
2023-05-07T02:50:12.486Z,123.90
2023-05-07T02:52:39.160Z,134.73
2023-05-07T02:55:06.159Z,112.00
2023-05-07T02:57:32.623Z,120.37
2023-05-07T02:59:59.575Z,112.60
2023-05-07T03:02:25.999Z,126.20
2023-05-07T03:04:52.841Z,123.30
2023-05-07T03:07:19.394Z,135.00
2023-05-07T03:09:46.357Z,122.53
2023-05-07T03:12:12.792Z,130.90
2023-05-07T03:14:39.283Z,132.97
2023-05-07T03:17:06.039Z,145.07
2023-05-07T03:19:32.497Z,150.30
2023-05-07T03:21:58.995Z,149.10
2023-05-07T03:24:25.538Z,151.37
2023-05-07T03:26:52.000Z,143.20
2023-05-07T03:29:18.714Z,164.70
2023-05-07T03:31:45.253Z,149.93
2023-05-07T03:34:11.760Z,159.00
2023-05-07T03:36:38.187Z,157.43
2023-05-07T03:39:04.881Z,147.87
2023-05-07T03:41:31.360Z,147.13
2023-05-07T03:43:57.818Z,147.20
2023-05-07T03:46:27.147Z,162.40
2023-05-07T03:48:53.715Z,175.50
2023-05-07T03:51:20.183Z,158.73
2023-05-07T03:53:46.607Z,169.43
2023-05-07T03:56:13.094Z,162.07
2023-05-07T03:58:39.548Z,170.40
2023-05-07T04:01:06.011Z,170.77
2023-05-07T04:03:32.617Z,165.57
2023-05-07T04:05:59.157Z,167.43
2023-05-07T04:08:25.577Z,167.13
2023-05-07T04:10:58.786Z,166.53
2023-05-07T04:13:25.819Z,169.87
2023-05-07T04:15:56.096Z,169.50
2023-05-07T04:18:22.764Z,174.80
2023-05-07T04:20:50.948Z,173.00
2023-05-07T04:23:17.481Z,165.90
2023-05-07T04:25:44.014Z,170.90
2023-05-07T04:28:10.482Z,172.90
2023-05-07T04:30:36.943Z,182.13
2023-05-07T04:33:03.572Z,185.60
2023-05-07T04:35:30.045Z,177.53
2023-05-07T04:37:56.494Z,187.93
2023-05-07T04:40:23.180Z,178.07
2023-05-07T04:42:49.616Z,167.07
2023-05-07T04:45:16.363Z,174.80
2023-05-07T04:47:42.898Z,193.80
2023-05-07T04:50:09.989Z,184.47
2023-05-07T04:52:36.733Z,188.67
2023-05-07T04:55:03.513Z,193.33
2023-05-07T04:57:29.949Z,189.40
2023-05-07T04:59:56.416Z,188.90
2023-05-07T05:02:22.861Z,194.43
2023-05-07T05:04:49.395Z,192.13
2023-05-07T05:07:15.828Z,184.87
2023-05-07T05:09:42.354Z,186.03
2023-05-07T05:12:10.318Z,185.97
2023-05-07T05:14:37.051Z,180.37
2023-05-07T05:17:03.510Z,195.30
2023-05-07T05:19:29.966Z,179.60
2023-05-07T05:21:56.516Z,194.23
2023-05-07T05:24:22.999Z,193.17
2023-05-07T05:26:49.466Z,187.57
2023-05-07T05:29:15.933Z,181.60
2023-05-07T05:31:42.833Z,185.60
2023-05-07T05:34:09.354Z,185.03
2023-05-07T05:36:35.838Z,195.17
2023-05-07T05:39:02.381Z,185.70
2023-05-07T05:41:28.861Z,191.07
2023-05-07T05:43:55.316Z,178.97
2023-05-07T05:46:21.871Z,184.83
2023-05-07T05:48:48.311Z,188.67
2023-05-07T05:51:14.816Z,187.47
2023-05-07T05:53:41.276Z,185.73
2023-05-07T05:56:07.976Z,179.93
2023-05-07T05:58:34.407Z,192.83
2023-05-07T06:01:01.076Z,185.50
2023-05-07T06:03:27.543Z,199.37
2023-05-07T06:05:54.021Z,184.87
2023-05-07T06:08:20.822Z,191.33
2023-05-07T06:10:47.369Z,192.20
2023-05-07T06:13:13.928Z,181.40
2023-05-07T06:15:40.475Z,182.20
2023-05-07T06:18:07.039Z,182.23
2023-05-07T06:20:33.605Z,184.70
2023-05-07T06:23:00.037Z,176.40
2023-05-07T06:25:26.494Z,184.30
2023-05-07T06:27:52.914Z,185.33
2023-05-07T06:30:19.516Z,195.10
2023-05-07T06:32:45.990Z,180.27
2023-05-07T06:35:12.468Z,188.47
2023-05-07T06:37:40.573Z,191.17
2023-05-07T06:40:08.366Z,189.40
2023-05-07T06:42:35.152Z,194.03
2023-05-07T06:45:02.039Z,186.53
2023-05-07T06:47:28.515Z,186.63
2023-05-07T06:49:55.049Z,186.47
2023-05-07T06:52:21.524Z,190.03
2023-05-07T06:54:48.040Z,178.50
2023-05-07T06:57:14.507Z,189.33
2023-05-07T06:59:41.122Z,180.03
2023-05-07T07:02:07.634Z,192.47
2023-05-07T07:04:34.130Z,188.00
2023-05-07T07:07:00.624Z,184.63
2023-05-07T07:09:27.090Z,179.33
2023-05-07T07:11:53.568Z,184.47
2023-05-07T07:14:20.090Z,179.43
2023-05-07T07:16:47.860Z,177.70
2023-05-07T07:19:16.187Z,189.50
2023-05-07T07:21:43.188Z,178.37
2023-05-07T07:24:09.651Z,174.37
2023-05-07T07:26:36.244Z,175.17
2023-05-07T07:29:02.728Z,166.67
2023-05-07T07:31:29.313Z,172.33
2023-05-07T07:33:55.897Z,174.13
2023-05-07T07:36:23.810Z,159.07
2023-05-07T07:38:54.839Z,161.23
2023-05-07T07:41:21.369Z,156.60
2023-05-07T07:43:49.159Z,142.60
2023-05-07T07:46:16.678Z,160.13
2023-05-07T07:48:43.143Z,145.20
2023-05-07T07:51:09.633Z,148.03
2023-05-07T07:53:36.087Z,137.03
2023-05-07T07:56:04.976Z,150.97
2023-05-07T07:58:32.664Z,152.63
2023-05-07T08:00:59.243Z,131.87
2023-05-07T08:03:25.826Z,139.50
2023-05-07T08:05:52.332Z,135.17
2023-05-07T08:08:18.791Z,141.53
2023-05-07T08:10:45.617Z,142.33
2023-05-07T08:13:12.145Z,136.97
2023-05-07T08:15:38.660Z,137.17
2023-05-07T08:18:05.340Z,131.23
2023-05-07T08:20:32.050Z,133.33
2023-05-07T08:22:58.589Z,136.67
2023-05-07T08:25:25.187Z,133.97
2023-05-07T08:27:51.665Z,132.63
2023-05-07T08:30:18.146Z,134.27
2023-05-07T08:32:44.675Z,133.77
2023-05-07T08:35:11.360Z,123.93
2023-05-07T08:37:37.919Z,131.80
2023-05-07T08:40:06.573Z,128.67
2023-05-07T08:42:38.518Z,118.30
2023-05-07T08:45:09.340Z,113.50
2023-05-07T08:47:48.785Z,126.47
2023-05-07T08:50:15.581Z,114.50
2023-05-07T08:52:42.189Z,114.97
2023-05-07T08:55:10.289Z,118.80
2023-05-07T08:57:37.104Z,106.60
2023-05-07T09:00:08.275Z,111.23
2023-05-07T09:02:49.117Z,114.70
2023-05-07T09:05:15.658Z,108.23
2023-05-07T09:07:42.165Z,119.67
2023-05-07T09:10:09.192Z,109.87
2023-05-07T09:12:37.242Z,106.83
2023-05-07T09:15:04.151Z,107.23
2023-05-07T09:17:30.708Z,112.73
2023-05-07T09:19:57.779Z,102.77
2023-05-07T09:22:24.336Z,104.90
2023-05-07T09:24:51.768Z,101.20
2023-05-07T09:27:19.003Z,103.60
2023-05-07T09:29:45.892Z,100.70
2023-05-07T09:32:12.407Z,107.73
2023-05-07T09:34:38.933Z,100.33
2023-05-07T09:37:06.797Z,112.03
2023-05-07T09:39:40.922Z,111.63
2023-05-07T09:42:07.656Z,98.50
2023-05-07T09:44:35.442Z,95.37
2023-05-07T09:47:03.005Z,99.20
2023-05-07T09:49:33.382Z,90.50
2023-05-07T09:52:01.585Z,95.77
2023-05-07T09:54:31.712Z,84.93
2023-05-07T09:56:59.410Z,108.23
2023-05-07T09:59:29.871Z,91.50
2023-05-07T10:01:59.283Z,89.83
2023-05-07T10:04:28.890Z,88.07
2023-05-07T10:06:56.620Z,88.30
2023-05-07T10:09:23.885Z,90.43
2023-05-07T10:11:51.078Z,90.77
2023-05-07T10:14:18.394Z,91.30
2023-05-07T10:16:45.804Z,86.93
2023-05-07T10:19:12.887Z,88.87
2023-05-07T10:21:43.007Z,91.80
2023-05-07T10:24:26.835Z,90.20
2023-05-07T10:26:58.107Z,86.43
2023-05-07T10:29:35.864Z,90.27
2023-05-07T10:32:12.748Z,88.80
2023-05-07T10:34:43.276Z,84.47
2023-05-07T10:37:10.987Z,83.40
2023-05-07T10:39:37.947Z,94.73
2023-05-07T10:42:11.898Z,86.40
2023-05-07T10:44:38.739Z,85.40
2023-05-07T10:47:17.466Z,83.53
2023-05-07T10:49:43.847Z,79.53
2023-05-07T10:52:18.549Z,77.83
2023-05-07T10:54:46.226Z,82.10
2023-05-07T10:57:37.512Z,90.13
2023-05-07T11:00:04.924Z,82.97
2023-05-07T11:03:06.810Z,84.70
2023-05-07T11:05:37.297Z,77.97
2023-05-07T11:08:05.836Z,88.80
2023-05-07T11:10:53.063Z,77.87
2023-05-07T11:13:40.835Z,75.73
2023-05-07T11:16:18.238Z,81.90
2023-05-07T11:18:50.924Z,78.17
2023-05-07T11:21:42.633Z,79.77
2023-05-07T11:24:10.284Z,85.23
2023-05-07T11:26:44.581Z,89.30
2023-05-07T11:29:20.832Z,80.70
2023-05-07T11:31:53.157Z,88.00
2023-05-07T11:34:24.651Z,85.87
2023-05-07T11:36:51.517Z,80.83
2023-05-07T11:39:34.449Z,70.93
2023-05-07T11:42:01.470Z,75.13
2023-05-07T11:44:42.455Z,73.80
2023-05-07T11:47:09.161Z,74.83
2023-05-07T11:49:35.674Z,82.97
2023-05-07T11:52:02.137Z,76.80
2023-05-07T11:54:36.356Z,74.93
2023-05-07T11:57:03.073Z,75.30
2023-05-07T11:59:29.547Z,77.13
2023-05-07T12:02:00.322Z,79.07
2023-05-07T12:04:27.055Z,86.30
2023-05-07T12:06:56.846Z,80.97
2023-05-07T12:09:23.383Z,85.33
2023-05-07T12:11:49.944Z,87.47
2023-05-07T12:14:19.265Z,91.47
2023-05-07T12:16:46.415Z,81.03
2023-05-07T12:19:16.167Z,86.77
2023-05-07T12:21:42.795Z,76.83
2023-05-07T12:24:09.296Z,70.53
2023-05-07T12:26:39.247Z,77.30
2023-05-07T12:29:05.868Z,73.83
2023-05-07T12:31:32.432Z,82.00
2023-05-07T12:33:58.944Z,80.67
2023-05-07T12:36:26.924Z,67.23
2023-05-07T12:38:55.635Z,75.17
2023-05-07T12:41:26.838Z,64.87
2023-05-07T12:43:57.642Z,71.47
2023-05-07T12:46:24.701Z,62.33
2023-05-07T12:48:51.303Z,60.37
2023-05-07T12:51:17.822Z,60.87
2023-05-07T12:53:44.489Z,60.60
2023-05-07T12:56:11.031Z,71.63
2023-05-07T12:58:37.585Z,69.90
2023-05-07T13:01:08.462Z,64.10
2023-05-07T13:03:36.243Z,60.67
2023-05-07T13:06:11.456Z,65.70
2023-05-07T13:08:41.676Z,62.17
2023-05-07T13:11:10.018Z,57.57
2023-05-07T13:13:38.401Z,57.57
2023-05-07T13:16:06.380Z,60.27
2023-05-07T13:18:33.688Z,60.23
2023-05-07T13:21:01.895Z,60.07
2023-05-07T13:23:28.785Z,62.00
2023-05-07T13:25:56.742Z,56.07
2023-05-07T13:28:24.233Z,56.73
2023-05-07T13:30:52.792Z,57.67
2023-05-07T13:33:19.444Z,62.73
2023-05-07T13:35:45.983Z,57.07
2023-05-07T13:38:12.436Z,55.40
2023-05-07T13:40:38.913Z,55.73
2023-05-07T13:43:07.138Z,52.90
2023-05-07T13:45:34.135Z,58.83
2023-05-07T13:48:01.976Z,52.87
2023-05-07T13:50:30.191Z,59.33
2023-05-07T13:52:56.907Z,58.70
2023-05-07T13:55:24.760Z,54.47
2023-05-07T13:57:59.562Z,51.57
2023-05-07T14:00:27.460Z,61.63
2023-05-07T14:02:54.379Z,64.93
2023-05-07T14:05:21.025Z,50.77
2023-05-07T14:07:48.742Z,52.40
2023-05-07T14:10:15.557Z,52.77
2023-05-07T14:12:42.404Z,57.67
2023-05-07T14:15:09.314Z,57.60
2023-05-07T14:17:35.895Z,60.40
2023-05-07T14:20:02.509Z,53.40
2023-05-07T14:22:29.060Z,56.93
2023-05-07T14:25:05.972Z,59.73
2023-05-07T14:27:33.600Z,52.73
2023-05-07T14:30:00.772Z,52.73
2023-05-07T14:32:28.138Z,52.50
2023-05-07T14:34:54.673Z,56.67
2023-05-07T14:37:22.296Z,66.67
2023-05-07T14:39:50.530Z,54.17
2023-05-07T14:42:17.829Z,57.77
2023-05-07T14:44:45.781Z,61.93
2023-05-07T14:47:12.242Z,58.00
2023-05-07T14:49:39.042Z,55.80
2023-05-07T14:52:07.157Z,60.30
2023-05-07T14:54:38.916Z,59.57
2023-05-07T14:57:06.833Z,59.33
2023-05-07T14:59:33.375Z,59.03
2023-05-07T15:01:59.878Z,65.83
2023-05-07T15:04:26.462Z,60.53
2023-05-07T15:06:54.758Z,63.70
2023-05-07T15:09:21.271Z,59.80
2023-05-07T15:11:47.700Z,51.77
2023-05-07T15:14:14.302Z,52.87
2023-05-07T15:16:40.904Z,60.10
2023-05-07T15:19:07.536Z,61.07
2023-05-07T15:21:35.753Z,62.47
2023-05-07T15:24:02.934Z,63.50
2023-05-07T15:26:30.244Z,58.43
2023-05-07T15:28:59.617Z,70.43
2023-05-07T15:31:26.398Z,62.43
2023-05-07T15:33:53.261Z,55.23
2023-05-07T15:36:21.212Z,58.70
2023-05-07T15:38:47.695Z,55.83
2023-05-07T15:41:14.171Z,53.57
2023-05-07T15:43:49.802Z,52.27
2023-05-07T15:46:21.058Z,52.70
2023-05-07T15:48:47.731Z,54.47
2023-05-07T15:51:14.319Z,52.70
2023-05-07T15:53:41.211Z,51.80
2023-05-07T15:56:07.810Z,60.70
2023-05-07T15:58:35.845Z,52.70
2023-05-07T16:01:02.530Z,71.27
2023-05-07T16:03:32.035Z,65.83
2023-05-07T16:06:00.837Z,55.30
2023-05-07T16:08:27.659Z,52.60
2023-05-07T16:10:54.425Z,52.00
2023-05-07T16:13:21.954Z,52.93
2023-05-07T16:15:48.603Z,66.80
2023-05-07T16:18:17.986Z,57.67
2023-05-07T16:20:44.481Z,54.07
2023-05-07T16:23:13.033Z,53.40
2023-05-07T16:25:39.579Z,51.93
2023-05-07T16:28:06.787Z,53.17
2023-05-07T16:30:33.898Z,66.57
2023-05-07T16:33:02.979Z,51.47
2023-05-07T16:35:29.534Z,59.87
2023-05-07T16:37:56.066Z,55.83
2023-05-07T16:40:22.893Z,50.67
2023-05-07T16:42:49.376Z,63.47
2023-05-07T16:45:16.513Z,63.60
2023-05-07T16:47:43.137Z,56.17
2023-05-07T16:50:10.042Z,57.37
2023-05-07T16:52:36.545Z,51.63
2023-05-07T16:55:03.138Z,54.17
2023-05-07T16:57:30.736Z,60.30
2023-05-07T16:59:57.484Z,50.67
2023-05-07T17:02:24.242Z,54.27
2023-05-07T17:04:50.816Z,52.60
2023-05-07T17:07:17.544Z,52.47
2023-05-07T17:09:44.084Z,51.13
2023-05-07T17:12:10.647Z,51.43
2023-05-07T17:14:37.452Z,61.83
2023-05-07T17:17:04.096Z,53.33
2023-05-07T17:19:30.570Z,60.73
2023-05-07T17:21:57.599Z,59.80
2023-05-07T17:24:24.043Z,60.50
2023-05-07T17:26:51.022Z,61.83
2023-05-07T17:29:19.217Z,58.00
2023-05-07T17:31:46.516Z,63.90
2023-05-07T17:34:15.877Z,57.50
2023-05-07T17:36:44.139Z,63.47
2023-05-07T17:39:10.653Z,60.27
2023-05-07T17:41:37.387Z,61.37
2023-05-07T17:44:04.000Z,62.30
2023-05-07T17:46:30.778Z,63.13
2023-05-07T17:48:57.943Z,64.43
2023-05-07T17:51:25.971Z,63.03
2023-05-07T17:53:52.443Z,63.60
2023-05-07T17:56:18.902Z,58.33
2023-05-07T17:58:58.875Z,63.80
2023-05-07T18:01:26.295Z,66.63
2023-05-07T18:03:52.916Z,67.30
2023-05-07T18:06:20.817Z,66.47
2023-05-07T18:08:47.738Z,65.07
2023-05-07T18:11:14.518Z,62.33
2023-05-07T18:13:41.039Z,64.67
2023-05-07T18:16:07.699Z,64.20
2023-05-07T18:18:35.441Z,64.97
2023-05-07T18:21:03.436Z,74.80
2023-05-07T18:23:30.957Z,66.43
2023-05-07T18:25:58.501Z,66.47
2023-05-07T18:28:28.599Z,72.23
2023-05-07T18:30:55.194Z,67.50
2023-05-07T18:33:22.863Z,69.40
2023-05-07T18:35:49.318Z,74.57
2023-05-07T18:38:16.468Z,67.87
2023-05-07T18:40:44.154Z,77.23
2023-05-07T18:43:11.325Z,74.33
2023-05-07T18:45:40.796Z,74.67
2023-05-07T18:48:07.616Z,75.10
2023-05-07T18:50:34.285Z,78.10
2023-05-07T18:53:00.883Z,83.07
2023-05-07T18:55:27.408Z,78.20
2023-05-07T18:57:53.895Z,78.00
2023-05-07T19:00:20.499Z,83.07
2023-05-07T19:02:46.992Z,87.40
2023-05-07T19:05:13.550Z,81.37
2023-05-07T19:07:40.081Z,85.43
2023-05-07T19:10:07.099Z,90.70
2023-05-07T19:12:33.581Z,94.13
2023-05-07T19:15:00.162Z,88.10
2023-05-07T19:17:26.684Z,91.83
2023-05-07T19:19:53.162Z,92.30
2023-05-07T19:22:19.712Z,90.17
2023-05-07T19:24:46.173Z,93.70
2023-05-07T19:27:12.654Z,97.10
2023-05-07T19:29:40.109Z,98.97
2023-05-07T19:32:06.662Z,99.83
2023-05-07T19:34:33.274Z,100.97
2023-05-07T19:36:59.732Z,96.10
2023-05-07T19:39:27.166Z,97.93
2023-05-07T19:41:53.717Z,100.43
2023-05-07T19:44:20.283Z,103.90
2023-05-07T19:46:47.800Z,109.20
2023-05-07T19:49:14.320Z,108.17
2023-05-07T19:51:40.925Z,106.50
2023-05-07T19:54:07.376Z,102.50
2023-05-07T19:56:33.842Z,114.63
2023-05-07T19:59:00.413Z,109.13
2023-05-07T20:01:28.868Z,116.50
2023-05-07T20:03:55.835Z,114.80
2023-05-07T20:06:23.432Z,119.90
2023-05-07T20:08:50.290Z,116.60
2023-05-07T20:11:16.778Z,118.00
2023-05-07T20:13:43.265Z,119.87
2023-05-07T20:16:09.864Z,115.53
2023-05-07T20:18:36.516Z,122.43
2023-05-07T20:21:04.522Z,127.43
2023-05-07T20:23:31.177Z,120.13
2023-05-07T20:25:58.389Z,121.30
2023-05-07T20:28:25.543Z,124.40
2023-05-07T20:30:52.002Z,126.90
2023-05-07T20:33:18.544Z,127.40
2023-05-07T20:35:45.294Z,131.17
2023-05-07T20:38:11.922Z,122.30
2023-05-07T20:40:38.647Z,132.93
2023-05-07T20:43:06.617Z,134.33
2023-05-07T20:45:33.379Z,133.40
2023-05-07T20:48:00.942Z,137.20
2023-05-07T20:50:27.943Z,138.40
2023-05-07T20:52:54.425Z,141.80
2023-05-07T20:55:20.908Z,145.10
2023-05-07T20:57:47.415Z,153.33
2023-05-07T21:00:15.851Z,145.33
2023-05-07T21:02:42.623Z,145.03
2023-05-07T21:05:09.462Z,147.30
2023-05-07T21:07:35.962Z,139.93
2023-05-07T21:10:03.322Z,144.63
2023-05-07T21:12:29.848Z,152.73
2023-05-07T21:14:56.730Z,144.97
2023-05-07T21:17:23.303Z,146.97
2023-05-07T21:19:50.180Z,154.60
2023-05-07T21:22:16.834Z,150.63
2023-05-07T21:24:44.073Z,152.67
2023-05-07T21:27:10.836Z,150.80
2023-05-07T21:29:38.603Z,151.20
2023-05-07T21:32:05.611Z,152.67
2023-05-07T21:34:32.164Z,152.67
2023-05-07T21:36:58.755Z,156.70
2023-05-07T21:39:25.514Z,150.40
2023-05-07T21:41:51.951Z,157.67
2023-05-07T21:44:18.428Z,155.73
2023-05-07T21:46:45.201Z,149.80
2023-05-07T21:49:11.992Z,153.33
2023-05-07T21:51:38.613Z,150.47
2023-05-07T21:54:05.366Z,140.00
2023-05-07T21:56:31.870Z,147.33
2023-05-07T21:58:58.438Z,144.93
2023-05-07T22:01:25.132Z,146.77
2023-05-07T22:03:52.027Z,150.67
2023-05-07T22:06:22.646Z,145.83
2023-05-07T22:08:49.723Z,142.63
2023-05-07T22:11:16.228Z,137.00
2023-05-07T22:13:43.796Z,140.30
2023-05-07T22:16:10.366Z,144.57
2023-05-07T22:18:36.843Z,141.37
2023-05-07T22:21:03.364Z,137.83
2023-05-07T22:23:29.884Z,131.97
2023-05-07T22:25:56.364Z,131.97
2023-05-07T22:28:22.808Z,135.77
2023-05-07T22:30:50.441Z,126.33
2023-05-07T22:33:16.968Z,127.83
2023-05-07T22:35:43.463Z,126.27
2023-05-07T22:38:09.937Z,128.00
2023-05-07T22:40:36.408Z,128.03
2023-05-07T22:43:02.865Z,125.30
2023-05-07T22:45:29.374Z,121.27
2023-05-07T22:47:55.824Z,124.70
2023-05-07T22:50:22.571Z,120.47
2023-05-07T22:52:49.145Z,121.30
2023-05-07T22:55:15.758Z,129.83
2023-05-07T22:57:42.246Z,123.93
2023-05-07T23:00:10.022Z,127.77
2023-05-07T23:02:36.936Z,120.47
2023-05-07T23:05:03.804Z,120.47
2023-05-07T23:07:30.495Z,118.30
2023-05-07T23:09:57.072Z,114.90
2023-05-07T23:12:23.573Z,119.73
2023-05-07T23:14:50.153Z,121.03
2023-05-07T23:17:17.062Z,123.37
2023-05-07T23:19:43.622Z,123.80
2023-05-07T23:22:10.456Z,119.63
2023-05-07T23:24:37.027Z,118.83
2023-05-07T23:27:07.291Z,124.13
2023-05-07T23:29:34.285Z,122.43
2023-05-07T23:32:01.870Z,124.47
2023-05-07T23:34:28.343Z,122.47
2023-05-07T23:36:54.913Z,123.23
2023-05-07T23:39:21.385Z,125.67
2023-05-07T23:41:47.988Z,124.37
2023-05-07T23:44:16.651Z,130.40
2023-05-07T23:46:44.473Z,125.50
2023-05-07T23:49:11.179Z,116.90
2023-05-07T23:51:37.961Z,129.20
2023-05-07T23:54:04.776Z,124.60
2023-05-07T23:56:31.579Z,126.53
2023-05-07T23:58:58.107Z,124.67
